sensor_id;sensor_type;location;lat;lon;timestamp;P1;durP1;ratioP1;P2;durP2;ratioP2
31848;SDS011;18414;59.352;18.152;2023-08-30T00:01:12;4.47;;;2.70;;
31848;SDS011;18414;59.352;18.152;2023-08-30T00:03:37;7.53;;;2.75;;
31848;SDS011;18414;59.352;18.152;2023-08-30T00:06:04;3.53;;;2.38;;
31848;SDS011;18414;59.352;18.152;2023-08-30T00:08:30;4.38;;;2.58;;
31848;SDS011;18414;59.352;18.152;2023-08-30T00:10:56;7.22;;;2.47;;
31848;SDS011;18414;59.352;18.152;2023-08-30T00:13:23;3.35;;;2.65;;
31848;SDS011;18414;59.352;18.152;2023-08-30T00:15:49;5.60;;;2.60;;
31848;SDS011;18414;59.352;18.152;2023-08-30T00:18:15;3.45;;;2.50;;
31848;SDS011;18414;59.352;18.152;2023-08-30T00:20:40;6.30;;;2.60;;
31848;SDS011;18414;59.352;18.152;2023-08-30T00:23:06;4.13;;;2.63;;
31848;SDS011;18414;59.352;18.152;2023-08-30T00:25:32;3.95;;;2.60;;
31848;SDS011;18414;59.352;18.152;2023-08-30T00:27:57;5.30;;;2.85;;
31848;SDS011;18414;59.352;18.152;2023-08-30T00:30:23;6.55;;;2.80;;
31848;SDS011;18414;59.352;18.152;2023-08-30T00:32:48;8.27;;;3.13;;
31848;SDS011;18414;59.352;18.152;2023-08-30T00:35:13;3.65;;;2.63;;
31848;SDS011;18414;59.352;18.152;2023-08-30T00:37:39;4.20;;;2.67;;
31848;SDS011;18414;59.352;18.152;2023-08-30T00:40:04;5.78;;;2.83;;
31848;SDS011;18414;59.352;18.152;2023-08-30T00:42:31;4.93;;;2.63;;
31848;SDS011;18414;59.352;18.152;2023-08-30T00:44:57;5.32;;;2.65;;
31848;SDS011;18414;59.352;18.152;2023-08-30T00:47:23;4.18;;;2.80;;
31848;SDS011;18414;59.352;18.152;2023-08-30T00:49:48;5.25;;;2.58;;
31848;SDS011;18414;59.352;18.152;2023-08-30T00:52:14;5.30;;;2.78;;
31848;SDS011;18414;59.352;18.152;2023-08-30T00:54:39;3.85;;;2.58;;
31848;SDS011;18414;59.352;18.152;2023-08-30T00:57:06;4.32;;;2.47;;
31848;SDS011;18414;59.352;18.152;2023-08-30T00:59:33;4.00;;;2.72;;
31848;SDS011;18414;59.352;18.152;2023-08-30T01:01:58;5.53;;;2.60;;
31848;SDS011;18414;59.352;18.152;2023-08-30T01:04:24;3.65;;;2.40;;
31848;SDS011;18414;59.352;18.152;2023-08-30T01:06:50;5.13;;;2.58;;
31848;SDS011;18414;59.352;18.152;2023-08-30T01:09:16;4.68;;;2.47;;
31848;SDS011;18414;59.352;18.152;2023-08-30T01:11:43;6.00;;;2.60;;
31848;SDS011;18414;59.352;18.152;2023-08-30T01:14:18;4.82;;;3.03;;
31848;SDS011;18414;59.352;18.152;2023-08-30T01:16:45;4.22;;;2.80;;
31848;SDS011;18414;59.352;18.152;2023-08-30T01:19:16;5.22;;;2.58;;
31848;SDS011;18414;59.352;18.152;2023-08-30T01:21:53;4.82;;;2.70;;
31848;SDS011;18414;59.352;18.152;2023-08-30T01:24:26;6.53;;;2.55;;
31848;SDS011;18414;59.352;18.152;2023-08-30T01:27:08;4.15;;;2.58;;
31848;SDS011;18414;59.352;18.152;2023-08-30T01:29:36;4.55;;;2.70;;
31848;SDS011;18414;59.352;18.152;2023-08-30T01:32:07;3.35;;;2.63;;
31848;SDS011;18414;59.352;18.152;2023-08-30T01:34:33;4.25;;;3.00;;
31848;SDS011;18414;59.352;18.152;2023-08-30T01:36:59;5.50;;;2.58;;
31848;SDS011;18414;59.352;18.152;2023-08-30T01:39:25;2.90;;;2.50;;
31848;SDS011;18414;59.352;18.152;2023-08-30T01:41:51;3.08;;;2.47;;
31848;SDS011;18414;59.352;18.152;2023-08-30T01:44:23;3.88;;;2.70;;
31848;SDS011;18414;59.352;18.152;2023-08-30T01:46:49;5.75;;;3.17;;
31848;SDS011;18414;59.352;18.152;2023-08-30T01:49:15;7.05;;;2.95;;
31848;SDS011;18414;59.352;18.152;2023-08-30T01:51:40;3.80;;;2.90;;
31848;SDS011;18414;59.352;18.152;2023-08-30T01:54:06;4.07;;;2.72;;
31848;SDS011;18414;59.352;18.152;2023-08-30T01:56:34;6.05;;;2.92;;
31848;SDS011;18414;59.352;18.152;2023-08-30T01:58:59;6.15;;;3.00;;
31848;SDS011;18414;59.352;18.152;2023-08-30T02:01:25;3.50;;;2.75;;
31848;SDS011;18414;59.352;18.152;2023-08-30T02:03:50;7.82;;;3.17;;
31848;SDS011;18414;59.352;18.152;2023-08-30T02:06:24;5.75;;;2.90;;
31848;SDS011;18414;59.352;18.152;2023-08-30T02:08:54;3.33;;;2.33;;
31848;SDS011;18414;59.352;18.152;2023-08-30T02:11:26;3.45;;;2.58;;
31848;SDS011;18414;59.352;18.152;2023-08-30T02:13:52;2.83;;;2.00;;
31848;SDS011;18414;59.352;18.152;2023-08-30T02:16:19;2.33;;;1.73;;
31848;SDS011;18414;59.352;18.152;2023-08-30T02:18:46;2.05;;;1.85;;
31848;SDS011;18414;59.352;18.152;2023-08-30T02:21:12;3.78;;;2.45;;
31848;SDS011;18414;59.352;18.152;2023-08-30T02:23:38;2.85;;;2.15;;
31848;SDS011;18414;59.352;18.152;2023-08-30T02:26:03;1.90;;;1.48;;
31848;SDS011;18414;59.352;18.152;2023-08-30T02:28:28;1.98;;;1.55;;
31848;SDS011;18414;59.352;18.152;2023-08-30T02:30:54;3.90;;;1.90;;
31848;SDS011;18414;59.352;18.152;2023-08-30T02:33:20;3.03;;;2.28;;
31848;SDS011;18414;59.352;18.152;2023-08-30T02:35:46;2.65;;;1.65;;
31848;SDS011;18414;59.352;18.152;2023-08-30T02:38:12;3.05;;;2.40;;
31848;SDS011;18414;59.352;18.152;2023-08-30T02:40:37;2.63;;;2.08;;
31848;SDS011;18414;59.352;18.152;2023-08-30T02:43:03;3.28;;;2.17;;
31848;SDS011;18414;59.352;18.152;2023-08-30T02:45:28;4.22;;;2.63;;
31848;SDS011;18414;59.352;18.152;2023-08-30T02:47:56;3.35;;;2.13;;
31848;SDS011;18414;59.352;18.152;2023-08-30T02:50:22;2.78;;;2.42;;
31848;SDS011;18414;59.352;18.152;2023-08-30T02:52:48;2.65;;;2.17;;
31848;SDS011;18414;59.352;18.152;2023-08-30T02:55:13;4.43;;;1.70;;
31848;SDS011;18414;59.352;18.152;2023-08-30T02:57:39;4.38;;;1.77;;
31848;SDS011;18414;59.352;18.152;2023-08-30T03:00:04;2.28;;;1.80;;
31848;SDS011;18414;59.352;18.152;2023-08-30T03:02:31;3.30;;;1.85;;
31848;SDS011;18414;59.352;18.152;2023-08-30T03:04:58;3.83;;;2.20;;
31848;SDS011;18414;59.352;18.152;2023-08-30T03:07:24;2.70;;;2.13;;
31848;SDS011;18414;59.352;18.152;2023-08-30T03:09:52;4.40;;;2.05;;
31848;SDS011;18414;59.352;18.152;2023-08-30T03:12:17;3.25;;;2.30;;
31848;SDS011;18414;59.352;18.152;2023-08-30T03:14:43;1.67;;;1.35;;
31848;SDS011;18414;59.352;18.152;2023-08-30T03:17:08;2.67;;;1.60;;
31848;SDS011;18414;59.352;18.152;2023-08-30T03:19:33;3.05;;;2.15;;
31848;SDS011;18414;59.352;18.152;2023-08-30T03:21:59;3.10;;;2.20;;
31848;SDS011;18414;59.352;18.152;2023-08-30T03:24:25;3.63;;;2.40;;
31848;SDS011;18414;59.352;18.152;2023-08-30T03:26:50;4.78;;;2.03;;
31848;SDS011;18414;59.352;18.152;2023-08-30T03:29:15;2.90;;;2.35;;
31848;SDS011;18414;59.352;18.152;2023-08-30T03:31:41;2.80;;;2.13;;
31848;SDS011;18414;59.352;18.152;2023-08-30T03:34:08;9.48;;;2.60;;
31848;SDS011;18414;59.352;18.152;2023-08-30T03:36:34;3.42;;;1.75;;
31848;SDS011;18414;59.352;18.152;2023-08-30T03:38:59;3.08;;;1.83;;
31848;SDS011;18414;59.352;18.152;2023-08-30T03:41:25;2.95;;;2.05;;
31848;SDS011;18414;59.352;18.152;2023-08-30T03:43:50;1.75;;;1.63;;
31848;SDS011;18414;59.352;18.152;2023-08-30T03:46:15;2.40;;;1.65;;
31848;SDS011;18414;59.352;18.152;2023-08-30T03:48:41;2.67;;;2.00;;
31848;SDS011;18414;59.352;18.152;2023-08-30T03:51:06;2.13;;;1.80;;
31848;SDS011;18414;59.352;18.152;2023-08-30T03:53:31;3.83;;;2.70;;
31848;SDS011;18414;59.352;18.152;2023-08-30T03:55:57;6.45;;;3.25;;
31848;SDS011;18414;59.352;18.152;2023-08-30T03:58:23;4.38;;;2.30;;
31848;SDS011;18414;59.352;18.152;2023-08-30T04:00:48;2.72;;;2.20;;
31848;SDS011;18414;59.352;18.152;2023-08-30T04:03:14;3.10;;;2.15;;
31848;SDS011;18414;59.352;18.152;2023-08-30T04:05:40;3.55;;;1.90;;
31848;SDS011;18414;59.352;18.152;2023-08-30T04:08:06;3.10;;;1.60;;
31848;SDS011;18414;59.352;18.152;2023-08-30T04:10:38;5.03;;;2.00;;
31848;SDS011;18414;59.352;18.152;2023-08-30T04:13:04;3.47;;;2.90;;
31848;SDS011;18414;59.352;18.152;2023-08-30T04:15:34;6.00;;;3.80;;
31848;SDS011;18414;59.352;18.152;2023-08-30T04:18:00;4.93;;;3.83;;
31848;SDS011;18414;59.352;18.152;2023-08-30T04:20:25;5.03;;;3.78;;
31848;SDS011;18414;59.352;18.152;2023-08-30T04:22:50;6.13;;;3.78;;
31848;SDS011;18414;59.352;18.152;2023-08-30T04:25:16;5.13;;;3.92;;
31848;SDS011;18414;59.352;18.152;2023-08-30T04:27:41;4.50;;;3.75;;
31848;SDS011;18414;59.352;18.152;2023-08-30T04:30:07;5.85;;;3.80;;
31848;SDS011;18414;59.352;18.152;2023-08-30T04:32:32;2.88;;;2.67;;
31848;SDS011;18414;59.352;18.152;2023-08-30T04:34:58;5.53;;;3.88;;
31848;SDS011;18414;59.352;18.152;2023-08-30T04:37:23;6.22;;;4.10;;
31848;SDS011;18414;59.352;18.152;2023-08-30T04:39:48;4.80;;;3.80;;
31848;SDS011;18414;59.352;18.152;2023-08-30T04:42:14;5.15;;;3.80;;
31848;SDS011;18414;59.352;18.152;2023-08-30T04:44:39;5.93;;;3.60;;
31848;SDS011;18414;59.352;18.152;2023-08-30T04:47:05;6.93;;;3.95;;
31848;SDS011;18414;59.352;18.152;2023-08-30T04:49:30;4.57;;;3.50;;
31848;SDS011;18414;59.352;18.152;2023-08-30T04:51:55;4.63;;;3.80;;
31848;SDS011;18414;59.352;18.152;2023-08-30T04:54:21;3.90;;;3.50;;
31848;SDS011;18414;59.352;18.152;2023-08-30T04:56:46;4.50;;;3.22;;
31848;SDS011;18414;59.352;18.152;2023-08-30T04:59:11;4.70;;;3.72;;
31848;SDS011;18414;59.352;18.152;2023-08-30T05:01:37;5.10;;;3.67;;
31848;SDS011;18414;59.352;18.152;2023-08-30T05:04:03;5.13;;;3.88;;
31848;SDS011;18414;59.352;18.152;2023-08-30T05:06:30;6.65;;;4.32;;
31848;SDS011;18414;59.352;18.152;2023-08-30T05:08:55;3.72;;;3.38;;
31848;SDS011;18414;59.352;18.152;2023-08-30T05:11:23;5.90;;;3.80;;
31848;SDS011;18414;59.352;18.152;2023-08-30T05:13:48;5.72;;;4.35;;
31848;SDS011;18414;59.352;18.152;2023-08-30T05:16:13;5.22;;;3.78;;
31848;SDS011;18414;59.352;18.152;2023-08-30T05:18:39;4.40;;;3.45;;
31848;SDS011;18414;59.352;18.152;2023-08-30T05:21:04;5.63;;;3.22;;
31848;SDS011;18414;59.352;18.152;2023-08-30T05:23:30;4.28;;;3.08;;
31848;SDS011;18414;59.352;18.152;2023-08-30T05:25:55;5.60;;;2.47;;
31848;SDS011;18414;59.352;18.152;2023-08-30T05:28:20;4.72;;;2.85;;
31848;SDS011;18414;59.352;18.152;2023-08-30T05:30:46;6.38;;;3.33;;
31848;SDS011;18414;59.352;18.152;2023-08-30T05:33:11;2.92;;;2.17;;
31848;SDS011;18414;59.352;18.152;2023-08-30T05:35:36;5.80;;;3.15;;
31848;SDS011;18414;59.352;18.152;2023-08-30T05:38:02;3.22;;;2.78;;
31848;SDS011;18414;59.352;18.152;2023-08-30T05:40:27;4.75;;;3.30;;
31848;SDS011;18414;59.352;18.152;2023-08-30T05:42:52;6.15;;;3.15;;
31848;SDS011;18414;59.352;18.152;2023-08-30T05:45:20;5.40;;;3.30;;
31848;SDS011;18414;59.352;18.152;2023-08-30T05:47:45;3.80;;;3.08;;
31848;SDS011;18414;59.352;18.152;2023-08-30T05:50:10;5.50;;;3.08;;
31848;SDS011;18414;59.352;18.152;2023-08-30T05:52:36;4.43;;;2.95;;
31848;SDS011;18414;59.352;18.152;2023-08-30T05:55:06;4.07;;;2.72;;
31848;SDS011;18414;59.352;18.152;2023-08-30T05:57:34;5.18;;;3.13;;
31848;SDS011;18414;59.352;18.152;2023-08-30T06:00:00;4.55;;;2.83;;
31848;SDS011;18414;59.352;18.152;2023-08-30T06:02:26;4.65;;;3.05;;
31848;SDS011;18414;59.352;18.152;2023-08-30T06:04:52;8.00;;;3.58;;
31848;SDS011;18414;59.352;18.152;2023-08-30T06:07:17;6.47;;;3.40;;
31848;SDS011;18414;59.352;18.152;2023-08-30T06:09:42;4.40;;;2.97;;
31848;SDS011;18414;59.352;18.152;2023-08-30T06:12:08;3.25;;;2.80;;
31848;SDS011;18414;59.352;18.152;2023-08-30T06:14:33;2.90;;;2.60;;
31848;SDS011;18414;59.352;18.152;2023-08-30T06:16:58;5.13;;;3.05;;
31848;SDS011;18414;59.352;18.152;2023-08-30T06:19:24;4.03;;;3.20;;
31848;SDS011;18414;59.352;18.152;2023-08-30T06:21:49;3.97;;;2.90;;
31848;SDS011;18414;59.352;18.152;2023-08-30T06:24:15;4.72;;;2.70;;
31848;SDS011;18414;59.352;18.152;2023-08-30T06:26:40;4.57;;;3.10;;
31848;SDS011;18414;59.352;18.152;2023-08-30T06:29:05;6.13;;;3.10;;
31848;SDS011;18414;59.352;18.152;2023-08-30T06:31:31;7.53;;;3.40;;
31848;SDS011;18414;59.352;18.152;2023-08-30T06:33:57;5.72;;;3.30;;
31848;SDS011;18414;59.352;18.152;2023-08-30T06:36:22;5.22;;;3.45;;
31848;SDS011;18414;59.352;18.152;2023-08-30T06:38:48;4.53;;;3.35;;
31848;SDS011;18414;59.352;18.152;2023-08-30T06:41:14;5.53;;;3.28;;
31848;SDS011;18414;59.352;18.152;2023-08-30T06:43:39;2.95;;;2.63;;
31848;SDS011;18414;59.352;18.152;2023-08-30T06:46:04;6.70;;;3.40;;
31848;SDS011;18414;59.352;18.152;2023-08-30T06:48:30;4.57;;;2.75;;
31848;SDS011;18414;59.352;18.152;2023-08-30T06:50:58;3.58;;;2.80;;
31848;SDS011;18414;59.352;18.152;2023-08-30T06:53:24;4.93;;;3.10;;
31848;SDS011;18414;59.352;18.152;2023-08-30T06:55:56;7.57;;;3.10;;
31848;SDS011;18414;59.352;18.152;2023-08-30T06:58:22;5.35;;;3.08;;
31848;SDS011;18414;59.352;18.152;2023-08-30T07:00:47;7.65;;;2.95;;
31848;SDS011;18414;59.352;18.152;2023-08-30T07:03:13;4.78;;;2.80;;
31848;SDS011;18414;59.352;18.152;2023-08-30T07:05:38;3.83;;;2.80;;
31848;SDS011;18414;59.352;18.152;2023-08-30T07:08:04;6.43;;;3.10;;
31848;SDS011;18414;59.352;18.152;2023-08-30T07:10:29;3.70;;;2.50;;
31848;SDS011;18414;59.352;18.152;2023-08-30T07:12:54;3.13;;;2.58;;
31848;SDS011;18414;59.352;18.152;2023-08-30T07:15:20;3.20;;;2.25;;
31848;SDS011;18414;59.352;18.152;2023-08-30T07:17:45;5.22;;;2.65;;
31848;SDS011;18414;59.352;18.152;2023-08-30T07:20:10;3.03;;;2.35;;
31848;SDS011;18414;59.352;18.152;2023-08-30T07:22:37;4.10;;;2.40;;
31848;SDS011;18414;59.352;18.152;2023-08-30T07:25:02;4.45;;;2.63;;
31848;SDS011;18414;59.352;18.152;2023-08-30T07:27:28;4.43;;;2.70;;
31848;SDS011;18414;59.352;18.152;2023-08-30T07:29:53;6.43;;;3.20;;
31848;SDS011;18414;59.352;18.152;2023-08-30T07:32:19;4.60;;;2.70;;
31848;SDS011;18414;59.352;18.152;2023-08-30T07:34:44;2.78;;;2.25;;
31848;SDS011;18414;59.352;18.152;2023-08-30T07:37:19;4.65;;;2.30;;
31848;SDS011;18414;59.352;18.152;2023-08-30T07:39:45;2.50;;;2.25;;
31848;SDS011;18414;59.352;18.152;2023-08-30T07:42:10;2.50;;;2.20;;
31848;SDS011;18414;59.352;18.152;2023-08-30T07:44:36;3.67;;;2.35;;
31848;SDS011;18414;59.352;18.152;2023-08-30T07:47:01;4.07;;;2.70;;
31848;SDS011;18414;59.352;18.152;2023-08-30T07:49:26;3.90;;;2.70;;
31848;SDS011;18414;59.352;18.152;2023-08-30T07:51:52;3.65;;;2.30;;
31848;SDS011;18414;59.352;18.152;2023-08-30T07:54:17;2.30;;;2.10;;
31848;SDS011;18414;59.352;18.152;2023-08-30T07:56:42;2.72;;;2.35;;
31848;SDS011;18414;59.352;18.152;2023-08-30T07:59:08;4.20;;;2.60;;
31848;SDS011;18414;59.352;18.152;2023-08-30T08:01:34;4.90;;;2.70;;
31848;SDS011;18414;59.352;18.152;2023-08-30T08:04:00;5.55;;;2.55;;
31848;SDS011;18414;59.352;18.152;2023-08-30T08:06:25;3.97;;;2.40;;
31848;SDS011;18414;59.352;18.152;2023-08-30T08:08:50;6.68;;;2.58;;
31848;SDS011;18414;59.352;18.152;2023-08-30T08:11:16;6.95;;;2.88;;
31848;SDS011;18414;59.352;18.152;2023-08-30T08:13:41;5.25;;;2.45;;
31848;SDS011;18414;59.352;18.152;2023-08-30T08:16:07;3.85;;;2.47;;
31848;SDS011;18414;59.352;18.152;2023-08-30T08:18:33;5.03;;;2.65;;
31848;SDS011;18414;59.352;18.152;2023-08-30T08:20:58;4.93;;;2.40;;
31848;SDS011;18414;59.352;18.152;2023-08-30T08:23:23;3.58;;;2.10;;
31848;SDS011;18414;59.352;18.152;2023-08-30T08:25:49;3.33;;;2.30;;
31848;SDS011;18414;59.352;18.152;2023-08-30T08:28:14;3.10;;;2.05;;
31848;SDS011;18414;59.352;18.152;2023-08-30T08:30:42;3.05;;;2.20;;
31848;SDS011;18414;59.352;18.152;2023-08-30T08:33:10;5.28;;;2.45;;
31848;SDS011;18414;59.352;18.152;2023-08-30T08:35:35;2.72;;;2.33;;
31848;SDS011;18414;59.352;18.152;2023-08-30T08:38:00;2.90;;;2.20;;
31848;SDS011;18414;59.352;18.152;2023-08-30T08:40:26;3.27;;;2.30;;
31848;SDS011;18414;59.352;18.152;2023-08-30T08:42:52;2.63;;;2.00;;
31848;SDS011;18414;59.352;18.152;2023-08-30T08:45:17;2.80;;;2.33;;
31848;SDS011;18414;59.352;18.152;2023-08-30T08:47:45;3.95;;;2.00;;
31848;SDS011;18414;59.352;18.152;2023-08-30T08:50:10;3.25;;;2.22;;
31848;SDS011;18414;59.352;18.152;2023-08-30T08:52:36;2.95;;;2.00;;
31848;SDS011;18414;59.352;18.152;2023-08-30T08:55:02;3.35;;;2.10;;
31848;SDS011;18414;59.352;18.152;2023-08-30T08:57:28;3.20;;;2.10;;
31848;SDS011;18414;59.352;18.152;2023-08-30T08:59:56;3.05;;;2.20;;
31848;SDS011;18414;59.352;18.152;2023-08-30T09:02:22;2.75;;;2.20;;
31848;SDS011;18414;59.352;18.152;2023-08-30T09:04:47;2.55;;;2.10;;
31848;SDS011;18414;59.352;18.152;2023-08-30T09:07:12;3.53;;;1.85;;
31848;SDS011;18414;59.352;18.152;2023-08-30T09:09:38;3.63;;;2.05;;
31848;SDS011;18414;59.352;18.152;2023-08-30T09:12:03;2.88;;;1.90;;
31848;SDS011;18414;59.352;18.152;2023-08-30T09:14:29;2.92;;;2.05;;
31848;SDS011;18414;59.352;18.152;2023-08-30T09:16:55;2.67;;;2.00;;
31848;SDS011;18414;59.352;18.152;2023-08-30T09:19:21;2.22;;;2.00;;
31848;SDS011;18414;59.352;18.152;2023-08-30T09:21:50;3.00;;;2.22;;
31848;SDS011;18414;59.352;18.152;2023-08-30T09:24:19;2.72;;;2.10;;
31848;SDS011;18414;59.352;18.152;2023-08-30T09:26:48;3.90;;;2.20;;
31848;SDS011;18414;59.352;18.152;2023-08-30T09:29:18;5.03;;;2.10;;
31848;SDS011;18414;59.352;18.152;2023-08-30T09:31:45;3.25;;;2.17;;
31848;SDS011;18414;59.352;18.152;2023-08-30T09:34:11;2.25;;;2.00;;
31848;SDS011;18414;59.352;18.152;2023-08-30T09:36:37;2.42;;;2.13;;
31848;SDS011;18414;59.352;18.152;2023-08-30T09:39:04;3.08;;;1.83;;
31848;SDS011;18414;59.352;18.152;2023-08-30T09:41:33;3.50;;;2.20;;
31848;SDS011;18414;59.352;18.152;2023-08-30T09:43:58;3.85;;;2.00;;
31848;SDS011;18414;59.352;18.152;2023-08-30T09:46:24;2.47;;;2.28;;
31848;SDS011;18414;59.352;18.152;2023-08-30T09:48:50;3.35;;;2.13;;
31848;SDS011;18414;59.352;18.152;2023-08-30T09:51:15;2.10;;;1.70;;
31848;SDS011;18414;59.352;18.152;2023-08-30T09:53:43;3.03;;;1.98;;
31848;SDS011;18414;59.352;18.152;2023-08-30T09:56:11;3.30;;;2.10;;
31848;SDS011;18414;59.352;18.152;2023-08-30T09:58:39;3.83;;;2.00;;
31848;SDS011;18414;59.352;18.152;2023-08-30T10:01:05;2.60;;;1.77;;
31848;SDS011;18414;59.352;18.152;2023-08-30T10:03:32;3.40;;;2.10;;
31848;SDS011;18414;59.352;18.152;2023-08-30T10:05:58;2.00;;;1.80;;
31848;SDS011;18414;59.352;18.152;2023-08-30T10:08:25;2.88;;;2.05;;
31848;SDS011;18414;59.352;18.152;2023-08-30T10:10:56;2.95;;;2.03;;
31848;SDS011;18414;59.352;18.152;2023-08-30T10:13:23;2.13;;;1.90;;
31848;SDS011;18414;59.352;18.152;2023-08-30T10:15:48;3.27;;;2.00;;
31848;SDS011;18414;59.352;18.152;2023-08-30T10:18:15;2.13;;;1.83;;
31848;SDS011;18414;59.352;18.152;2023-08-30T10:20:43;2.60;;;2.20;;
31848;SDS011;18414;59.352;18.152;2023-08-30T10:23:10;2.90;;;2.00;;
31848;SDS011;18414;59.352;18.152;2023-08-30T10:25:36;2.50;;;2.00;;
31848;SDS011;18414;59.352;18.152;2023-08-30T10:28:03;2.30;;;1.90;;
31848;SDS011;18414;59.352;18.152;2023-08-30T10:30:29;2.65;;;1.73;;
31848;SDS011;18414;59.352;18.152;2023-08-30T10:32:54;5.88;;;2.10;;
31848;SDS011;18414;59.352;18.152;2023-08-30T10:35:19;1.90;;;1.80;;
31848;SDS011;18414;59.352;18.152;2023-08-30T10:37:58;3.85;;;1.98;;
31848;SDS011;18414;59.352;18.152;2023-08-30T10:40:24;3.08;;;1.75;;
31848;SDS011;18414;59.352;18.152;2023-08-30T10:42:59;1.63;;;1.50;;
31848;SDS011;18414;59.352;18.152;2023-08-30T10:45:26;1.95;;;1.70;;
31848;SDS011;18414;59.352;18.152;2023-08-30T10:47:54;2.38;;;1.60;;
31848;SDS011;18414;59.352;18.152;2023-08-30T10:50:26;3.25;;;1.90;;
31848;SDS011;18414;59.352;18.152;2023-08-30T10:52:54;2.63;;;1.77;;
31848;SDS011;18414;59.352;18.152;2023-08-30T10:55:21;2.45;;;1.80;;
31848;SDS011;18414;59.352;18.152;2023-08-30T10:57:57;3.47;;;2.05;;
31848;SDS011;18414;59.352;18.152;2023-08-30T11:00:29;4.05;;;1.90;;
31848;SDS011;18414;59.352;18.152;2023-08-30T11:02:55;2.33;;;1.75;;
31848;SDS011;18414;59.352;18.152;2023-08-30T11:05:21;3.13;;;1.75;;
31848;SDS011;18414;59.352;18.152;2023-08-30T11:07:48;2.38;;;1.73;;
31848;SDS011;18414;59.352;18.152;2023-08-30T11:10:15;3.03;;;1.63;;
31848;SDS011;18414;59.352;18.152;2023-08-30T11:12:42;2.33;;;1.65;;
31848;SDS011;18414;59.352;18.152;2023-08-30T11:15:09;3.17;;;1.85;;
31848;SDS011;18414;59.352;18.152;2023-08-30T11:17:35;3.15;;;1.77;;
31848;SDS011;18414;59.352;18.152;2023-08-30T11:20:10;1.73;;;1.63;;
31848;SDS011;18414;59.352;18.152;2023-08-30T11:22:39;4.07;;;1.80;;
31848;SDS011;18414;59.352;18.152;2023-08-30T11:25:07;2.25;;;1.75;;
31848;SDS011;18414;59.352;18.152;2023-08-30T11:27:33;4.78;;;1.70;;
31848;SDS011;18414;59.352;18.152;2023-08-30T11:29:59;3.42;;;1.90;;
31848;SDS011;18414;59.352;18.152;2023-08-30T11:32:27;2.15;;;1.45;;
31848;SDS011;18414;59.352;18.152;2023-08-30T11:34:56;2.15;;;1.60;;
31848;SDS011;18414;59.352;18.152;2023-08-30T11:37:23;2.53;;;1.92;;
31848;SDS011;18414;59.352;18.152;2023-08-30T11:39:52;2.38;;;1.50;;
31848;SDS011;18414;59.352;18.152;2023-08-30T11:42:18;3.83;;;1.80;;
31848;SDS011;18414;59.352;18.152;2023-08-30T11:44:44;3.10;;;1.70;;
31848;SDS011;18414;59.352;18.152;2023-08-30T11:47:10;4.30;;;2.50;;
31848;SDS011;18414;59.352;18.152;2023-08-30T11:49:35;3.58;;;1.70;;
31848;SDS011;18414;59.352;18.152;2023-08-30T11:52:01;2.83;;;1.75;;
31848;SDS011;18414;59.352;18.152;2023-08-30T11:54:27;2.13;;;1.90;;
31848;SDS011;18414;59.352;18.152;2023-08-30T11:56:53;3.80;;;1.83;;
31848;SDS011;18414;59.352;18.152;2023-08-30T11:59:19;2.75;;;2.10;;
31848;SDS011;18414;59.352;18.152;2023-08-30T12:01:46;4.38;;;2.10;;
31848;SDS011;18414;59.352;18.152;2023-08-30T12:04:12;2.13;;;1.92;;
31848;SDS011;18414;59.352;18.152;2023-08-30T12:06:38;3.22;;;1.80;;
31848;SDS011;18414;59.352;18.152;2023-08-30T12:09:03;2.08;;;1.80;;
31848;SDS011;18414;59.352;18.152;2023-08-30T12:11:31;2.10;;;1.90;;
31848;SDS011;18414;59.352;18.152;2023-08-30T12:14:01;2.75;;;2.35;;
31848;SDS011;18414;59.352;18.152;2023-08-30T12:16:27;2.30;;;1.90;;
31848;SDS011;18414;59.352;18.152;2023-08-30T12:18:53;3.20;;;2.25;;
31848;SDS011;18414;59.352;18.152;2023-08-30T12:21:19;2.72;;;2.33;;
31848;SDS011;18414;59.352;18.152;2023-08-30T12:23:44;2.20;;;2.00;;
31848;SDS011;18414;59.352;18.152;2023-08-30T12:26:10;2.60;;;2.05;;
31848;SDS011;18414;59.352;18.152;2023-08-30T12:28:39;3.38;;;2.38;;
31848;SDS011;18414;59.352;18.152;2023-08-30T12:31:05;2.92;;;2.20;;
31848;SDS011;18414;59.352;18.152;2023-08-30T12:33:34;2.53;;;2.33;;
31848;SDS011;18414;59.352;18.152;2023-08-30T12:36:00;2.90;;;2.20;;
31848;SDS011;18414;59.352;18.152;2023-08-30T12:38:26;2.65;;;2.10;;
31848;SDS011;18414;59.352;18.152;2023-08-30T12:40:52;2.50;;;1.85;;
31848;SDS011;18414;59.352;18.152;2023-08-30T12:43:19;2.97;;;1.85;;
31848;SDS011;18414;59.352;18.152;2023-08-30T12:45:45;2.10;;;1.90;;
31848;SDS011;18414;59.352;18.152;2023-08-30T12:48:11;2.85;;;2.10;;
31848;SDS011;18414;59.352;18.152;2023-08-30T12:50:39;1.92;;;1.75;;
31848;SDS011;18414;59.352;18.152;2023-08-30T12:53:04;2.30;;;1.80;;
31848;SDS011;18414;59.352;18.152;2023-08-30T12:55:30;2.35;;;2.00;;
31848;SDS011;18414;59.352;18.152;2023-08-30T12:57:56;1.60;;;1.50;;
31848;SDS011;18414;59.352;18.152;2023-08-30T13:00:22;2.10;;;1.60;;
31848;SDS011;18414;59.352;18.152;2023-08-30T13:02:48;2.83;;;1.50;;
31848;SDS011;18414;59.352;18.152;2023-08-30T13:05:13;1.95;;;1.50;;
31848;SDS011;18414;59.352;18.152;2023-08-30T13:07:38;1.45;;;1.30;;
31848;SDS011;18414;59.352;18.152;2023-08-30T13:10:04;2.80;;;1.70;;
31848;SDS011;18414;59.352;18.152;2023-08-30T13:12:31;1.95;;;1.73;;
31848;SDS011;18414;59.352;18.152;2023-08-30T13:14:56;3.05;;;1.60;;
31848;SDS011;18414;59.352;18.152;2023-08-30T13:17:21;2.75;;;1.48;;
31848;SDS011;18414;59.352;18.152;2023-08-30T13:19:47;1.60;;;1.50;;
31848;SDS011;18414;59.352;18.152;2023-08-30T13:22:12;1.52;;;1.40;;
31848;SDS011;18414;59.352;18.152;2023-08-30T13:24:38;2.97;;;1.52;;
31848;SDS011;18414;59.352;18.152;2023-08-30T13:27:03;1.48;;;1.38;;
31848;SDS011;18414;59.352;18.152;2023-08-30T13:29:29;1.52;;;1.33;;
31848;SDS011;18414;59.352;18.152;2023-08-30T13:31:54;1.10;;;1.00;;
31848;SDS011;18414;59.352;18.152;2023-08-30T13:34:20;3.33;;;1.45;;
31848;SDS011;18414;59.352;18.152;2023-08-30T13:36:45;1.10;;;1.00;;
31848;SDS011;18414;59.352;18.152;2023-08-30T13:39:10;1.30;;;1.20;;
31848;SDS011;18414;59.352;18.152;2023-08-30T13:41:36;1.35;;;1.17;;
31848;SDS011;18414;59.352;18.152;2023-08-30T13:44:01;1.67;;;1.38;;
31848;SDS011;18414;59.352;18.152;2023-08-30T13:46:29;1.50;;;1.13;;
31848;SDS011;18414;59.352;18.152;2023-08-30T13:48:56;2.17;;;1.40;;
31848;SDS011;18414;59.352;18.152;2023-08-30T13:51:22;2.05;;;1.20;;
31848;SDS011;18414;59.352;18.152;2023-08-30T13:53:52;1.83;;;1.13;;
31848;SDS011;18414;59.352;18.152;2023-08-30T13:56:27;1.83;;;1.10;;
31848;SDS011;18414;59.352;18.152;2023-08-30T13:58:53;1.05;;;0.95;;
31848;SDS011;18414;59.352;18.152;2023-08-30T14:01:18;1.42;;;1.20;;
31848;SDS011;18414;59.352;18.152;2023-08-30T14:03:44;2.00;;;1.20;;
31848;SDS011;18414;59.352;18.152;2023-08-30T14:06:09;1.50;;;1.15;;
31848;SDS011;18414;59.352;18.152;2023-08-30T14:08:35;2.38;;;1.17;;
31848;SDS011;18414;59.352;18.152;2023-08-30T14:11:00;1.23;;;1.10;;
31848;SDS011;18414;59.352;18.152;2023-08-30T14:13:26;1.75;;;1.33;;
31848;SDS011;18414;59.352;18.152;2023-08-30T14:15:53;1.42;;;1.10;;
31848;SDS011;18414;59.352;18.152;2023-08-30T14:18:18;1.63;;;1.20;;
31848;SDS011;18414;59.352;18.152;2023-08-30T14:20:44;1.85;;;1.40;;
31848;SDS011;18414;59.352;18.152;2023-08-30T14:23:09;2.53;;;1.30;;
31848;SDS011;18414;59.352;18.152;2023-08-30T14:25:34;2.60;;;1.30;;
31848;SDS011;18414;59.352;18.152;2023-08-30T14:28:00;1.55;;;1.45;;